sensor_id;sensor_type;location;lat;lon;timestamp;P1;durP1;ratioP1;P2;durP2;ratioP2
68718;SDS011;55696;52.138;5.444;2023-09-07T00:00:49;10.67;;;6.57;;
68718;SDS011;55696;52.138;5.444;2023-09-07T00:03:16;9.57;;;6.05;;
68718;SDS011;55696;52.138;5.444;2023-09-07T00:05:43;9.18;;;6.53;;
68718;SDS011;55696;52.138;5.444;2023-09-07T00:08:11;9.02;;;6.82;;
68718;SDS011;55696;52.138;5.444;2023-09-07T00:10:38;9.82;;;6.68;;
68718;SDS011;55696;52.138;5.444;2023-09-07T00:13:05;12.53;;;7.20;;
68718;SDS011;55696;52.138;5.444;2023-09-07T00:15:35;12.20;;;6.93;;
68718;SDS011;55696;52.138;5.444;2023-09-07T00:18:03;8.13;;;6.30;;
68718;SDS011;55696;52.138;5.444;2023-09-07T00:20:31;10.43;;;7.07;;
68718;SDS011;55696;52.138;5.444;2023-09-07T00:23:00;9.65;;;6.60;;
68718;SDS011;55696;52.138;5.444;2023-09-07T00:25:27;7.93;;;5.67;;
68718;SDS011;55696;52.138;5.444;2023-09-07T00:27:54;8.23;;;5.80;;
68718;SDS011;55696;52.138;5.444;2023-09-07T00:30:21;9.30;;;6.53;;
68718;SDS011;55696;52.138;5.444;2023-09-07T00:32:48;9.05;;;6.05;;
68718;SDS011;55696;52.138;5.444;2023-09-07T00:35:15;8.98;;;5.88;;
68718;SDS011;55696;52.138;5.444;2023-09-07T00:37:42;15.40;;;6.80;;
68718;SDS011;55696;52.138;5.444;2023-09-07T00:40:08;8.48;;;5.38;;
68718;SDS011;55696;52.138;5.444;2023-09-07T00:42:36;8.40;;;5.82;;
68718;SDS011;55696;52.138;5.444;2023-09-07T00:45:03;12.90;;;7.57;;
68718;SDS011;55696;52.138;5.444;2023-09-07T00:47:31;9.20;;;5.90;;
68718;SDS011;55696;52.138;5.444;2023-09-07T00:50:02;8.00;;;5.37;;
68718;SDS011;55696;52.138;5.444;2023-09-07T00:52:33;8.38;;;5.55;;
68718;SDS011;55696;52.138;5.444;2023-09-07T00:55:01;7.13;;;5.60;;
68718;SDS011;55696;52.138;5.444;2023-09-07T00:57:30;8.80;;;6.40;;
68718;SDS011;55696;52.138;5.444;2023-09-07T00:59:58;7.80;;;5.63;;
68718;SDS011;55696;52.138;5.444;2023-09-07T01:02:25;9.07;;;5.33;;
68718;SDS011;55696;52.138;5.444;2023-09-07T01:04:52;8.50;;;4.75;;
68718;SDS011;55696;52.138;5.444;2023-09-07T01:07:26;8.32;;;5.47;;
68718;SDS011;55696;52.138;5.444;2023-09-07T01:10:09;7.38;;;5.30;;
68718;SDS011;55696;52.138;5.444;2023-09-07T01:12:36;10.93;;;6.00;;
68718;SDS011;55696;52.138;5.444;2023-09-07T01:15:03;8.20;;;5.90;;
68718;SDS011;55696;52.138;5.444;2023-09-07T01:17:31;10.95;;;6.28;;
68718;SDS011;55696;52.138;5.444;2023-09-07T01:20:02;7.95;;;5.78;;
68718;SDS011;55696;52.138;5.444;2023-09-07T01:22:36;7.47;;;5.68;;
68718;SDS011;55696;52.138;5.444;2023-09-07T01:25:05;7.53;;;5.55;;
68718;SDS011;55696;52.138;5.444;2023-09-07T01:27:34;13.40;;;5.57;;
68718;SDS011;55696;52.138;5.444;2023-09-07T01:30:01;10.55;;;6.25;;
68718;SDS011;55696;52.138;5.444;2023-09-07T01:32:30;8.88;;;6.57;;
68718;SDS011;55696;52.138;5.444;2023-09-07T01:34:57;8.05;;;6.07;;
68718;SDS011;55696;52.138;5.444;2023-09-07T01:37:24;8.35;;;5.85;;
68718;SDS011;55696;52.138;5.444;2023-09-07T01:39:52;10.03;;;6.23;;
68718;SDS011;55696;52.138;5.444;2023-09-07T01:42:21;9.18;;;6.00;;
68718;SDS011;55696;52.138;5.444;2023-09-07T01:44:48;11.18;;;6.68;;
68718;SDS011;55696;52.138;5.444;2023-09-07T01:47:15;7.38;;;5.60;;
68718;SDS011;55696;52.138;5.444;2023-09-07T01:49:42;10.35;;;5.85;;
68718;SDS011;55696;52.138;5.444;2023-09-07T01:52:09;10.43;;;5.87;;
68718;SDS011;55696;52.138;5.444;2023-09-07T01:54:36;11.40;;;6.70;;
68718;SDS011;55696;52.138;5.444;2023-09-07T01:57:03;10.85;;;6.75;;
68718;SDS011;55696;52.138;5.444;2023-09-07T01:59:30;9.63;;;6.72;;
68718;SDS011;55696;52.138;5.444;2023-09-07T02:01:57;8.50;;;6.28;;
68718;SDS011;55696;52.138;5.444;2023-09-07T02:04:24;8.87;;;6.87;;
68718;SDS011;55696;52.138;5.444;2023-09-07T02:06:51;12.15;;;7.68;;
68718;SDS011;55696;52.138;5.444;2023-09-07T02:09:18;9.07;;;6.22;;
68718;SDS011;55696;52.138;5.444;2023-09-07T02:11:45;11.68;;;6.82;;
68718;SDS011;55696;52.138;5.444;2023-09-07T02:14:11;9.75;;;6.63;;
68718;SDS011;55696;52.138;5.444;2023-09-07T02:16:39;9.03;;;6.37;;
68718;SDS011;55696;52.138;5.444;2023-09-07T02:19:06;9.90;;;6.95;;
68718;SDS011;55696;52.138;5.444;2023-09-07T02:21:33;10.30;;;6.28;;
68718;SDS011;55696;52.138;5.444;2023-09-07T02:24:00;9.15;;;6.50;;
68718;SDS011;55696;52.138;5.444;2023-09-07T02:26:27;11.32;;;6.90;;
68718;SDS011;55696;52.138;5.444;2023-09-07T02:28:53;9.03;;;6.50;;
68718;SDS011;55696;52.138;5.444;2023-09-07T02:31:20;9.65;;;6.57;;
68718;SDS011;55696;52.138;5.444;2023-09-07T02:33:47;10.23;;;7.28;;
68718;SDS011;55696;52.138;5.444;2023-09-07T02:36:14;9.57;;;6.30;;
68718;SDS011;55696;52.138;5.444;2023-09-07T02:38:41;11.25;;;6.63;;
68718;SDS011;55696;52.138;5.444;2023-09-07T02:41:08;9.60;;;7.10;;
68718;SDS011;55696;52.138;5.444;2023-09-07T02:43:35;8.77;;;6.47;;
68718;SDS011;55696;52.138;5.444;2023-09-07T02:46:02;9.52;;;7.38;;
68718;SDS011;55696;52.138;5.444;2023-09-07T02:48:29;11.10;;;7.75;;
68718;SDS011;55696;52.138;5.444;2023-09-07T02:50:56;12.15;;;7.38;;
68718;SDS011;55696;52.138;5.444;2023-09-07T02:53:25;10.00;;;7.27;;
68718;SDS011;55696;52.138;5.444;2023-09-07T02:55:52;9.70;;;6.47;;
68718;SDS011;55696;52.138;5.444;2023-09-07T02:58:19;10.80;;;7.15;;
68718;SDS011;55696;52.138;5.444;2023-09-07T03:00:46;9.65;;;7.05;;
68718;SDS011;55696;52.138;5.444;2023-09-07T03:03:16;11.23;;;7.10;;
68718;SDS011;55696;52.138;5.444;2023-09-07T03:05:44;11.73;;;7.00;;
68718;SDS011;55696;52.138;5.444;2023-09-07T03:08:12;12.00;;;6.80;;
68718;SDS011;55696;52.138;5.444;2023-09-07T03:10:39;10.15;;;7.10;;
68718;SDS011;55696;52.138;5.444;2023-09-07T03:13:07;10.30;;;6.35;;
68718;SDS011;55696;52.138;5.444;2023-09-07T03:15:35;13.23;;;6.93;;
68718;SDS011;55696;52.138;5.444;2023-09-07T03:18:06;10.93;;;6.37;;
68718;SDS011;55696;52.138;5.444;2023-09-07T03:20:34;10.15;;;6.55;;
68718;SDS011;55696;52.138;5.444;2023-09-07T03:23:02;10.52;;;7.20;;
68718;SDS011;55696;52.138;5.444;2023-09-07T03:25:30;10.77;;;7.40;;
68718;SDS011;55696;52.138;5.444;2023-09-07T03:27:57;8.65;;;6.93;;
68718;SDS011;55696;52.138;5.444;2023-09-07T03:30:24;11.90;;;6.80;;
68718;SDS011;55696;52.138;5.444;2023-09-07T03:32:52;11.30;;;7.70;;
68718;SDS011;55696;52.138;5.444;2023-09-07T03:35:19;11.13;;;7.72;;
68718;SDS011;55696;52.138;5.444;2023-09-07T03:37:46;10.02;;;7.22;;
68718;SDS011;55696;52.138;5.444;2023-09-07T03:40:13;14.35;;;7.50;;
68718;SDS011;55696;52.138;5.444;2023-09-07T03:42:40;9.30;;;6.97;;
68718;SDS011;55696;52.138;5.444;2023-09-07T03:45:09;11.60;;;8.05;;
68718;SDS011;55696;52.138;5.444;2023-09-07T03:47:37;11.63;;;7.70;;
68718;SDS011;55696;52.138;5.444;2023-09-07T03:50:04;11.45;;;7.15;;
68718;SDS011;55696;52.138;5.444;2023-09-07T03:52:32;10.32;;;7.47;;
68718;SDS011;55696;52.138;5.444;2023-09-07T03:55:01;15.30;;;7.60;;
68718;SDS011;55696;52.138;5.444;2023-09-07T03:57:28;10.45;;;7.32;;
68718;SDS011;55696;52.138;5.444;2023-09-07T03:59:56;10.80;;;7.85;;
68718;SDS011;55696;52.138;5.444;2023-09-07T04:02:23;11.00;;;7.97;;
68718;SDS011;55696;52.138;5.444;2023-09-07T04:04:52;9.38;;;7.25;;
68718;SDS011;55696;52.138;5.444;2023-09-07T04:07:20;9.37;;;6.90;;
68718;SDS011;55696;52.138;5.444;2023-09-07T04:09:47;10.52;;;7.70;;
68718;SDS011;55696;52.138;5.444;2023-09-07T04:12:14;9.52;;;7.13;;
68718;SDS011;55696;52.138;5.444;2023-09-07T04:14:41;8.43;;;6.30;;
68718;SDS011;55696;52.138;5.444;2023-09-07T04:17:08;9.95;;;6.97;;
68718;SDS011;55696;52.138;5.444;2023-09-07T04:19:35;10.60;;;7.67;;
68718;SDS011;55696;52.138;5.444;2023-09-07T04:22:02;11.50;;;6.80;;
68718;SDS011;55696;52.138;5.444;2023-09-07T04:24:29;9.75;;;7.40;;
68718;SDS011;55696;52.138;5.444;2023-09-07T04:27:00;11.57;;;7.28;;
68718;SDS011;55696;52.138;5.444;2023-09-07T04:29:28;11.15;;;7.20;;
68718;SDS011;55696;52.138;5.444;2023-09-07T04:31:56;10.37;;;7.27;;
68718;SDS011;55696;52.138;5.444;2023-09-07T04:34:23;11.05;;;7.65;;
68718;SDS011;55696;52.138;5.444;2023-09-07T04:36:52;13.60;;;7.32;;
68718;SDS011;55696;52.138;5.444;2023-09-07T04:39:19;10.88;;;7.85;;
68718;SDS011;55696;52.138;5.444;2023-09-07T04:41:46;10.90;;;7.30;;
68718;SDS011;55696;52.138;5.444;2023-09-07T04:44:14;10.30;;;6.90;;
68718;SDS011;55696;52.138;5.444;2023-09-07T04:46:41;10.20;;;7.03;;
68718;SDS011;55696;52.138;5.444;2023-09-07T04:49:09;11.68;;;7.25;;
68718;SDS011;55696;52.138;5.444;2023-09-07T04:51:36;9.60;;;6.30;;
68718;SDS011;55696;52.138;5.444;2023-09-07T04:54:03;10.00;;;6.30;;
68718;SDS011;55696;52.138;5.444;2023-09-07T04:56:30;11.23;;;7.17;;
68718;SDS011;55696;52.138;5.444;2023-09-07T04:58:57;10.48;;;7.45;;
68718;SDS011;55696;52.138;5.444;2023-09-07T05:01:25;11.27;;;7.20;;
68718;SDS011;55696;52.138;5.444;2023-09-07T05:03:53;9.07;;;6.22;;
68718;SDS011;55696;52.138;5.444;2023-09-07T05:06:21;10.82;;;6.85;;
68718;SDS011;55696;52.138;5.444;2023-09-07T05:08:50;10.10;;;7.00;;
68718;SDS011;55696;52.138;5.444;2023-09-07T05:11:17;12.05;;;7.70;;
68718;SDS011;55696;52.138;5.444;2023-09-07T05:13:44;9.95;;;7.13;;
68718;SDS011;55696;52.138;5.444;2023-09-07T05:16:11;8.15;;;6.30;;
68718;SDS011;55696;52.138;5.444;2023-09-07T05:18:40;11.52;;;7.15;;
68718;SDS011;55696;52.138;5.444;2023-09-07T05:21:14;10.87;;;7.00;;
68718;SDS011;55696;52.138;5.444;2023-09-07T05:23:41;10.45;;;7.07;;
68718;SDS011;55696;52.138;5.444;2023-09-07T05:26:09;16.48;;;7.40;;
68718;SDS011;55696;52.138;5.444;2023-09-07T05:28:36;10.30;;;7.03;;
68718;SDS011;55696;52.138;5.444;2023-09-07T05:31:03;12.65;;;6.35;;
68718;SDS011;55696;52.138;5.444;2023-09-07T05:33:31;13.23;;;7.67;;
68718;SDS011;55696;52.138;5.444;2023-09-07T05:35:58;13.35;;;7.10;;
68718;SDS011;55696;52.138;5.444;2023-09-07T05:38:25;13.77;;;7.45;;
68718;SDS011;55696;52.138;5.444;2023-09-07T05:40:52;12.85;;;7.00;;
68718;SDS011;55696;52.138;5.444;2023-09-07T05:43:22;11.05;;;7.22;;
68718;SDS011;55696;52.138;5.444;2023-09-07T05:45:49;13.43;;;7.17;;
68718;SDS011;55696;52.138;5.444;2023-09-07T05:48:16;11.52;;;6.60;;
68718;SDS011;55696;52.138;5.444;2023-09-07T05:50:44;16.10;;;7.57;;
68718;SDS011;55696;52.138;5.444;2023-09-07T05:53:12;14.25;;;7.38;;
68718;SDS011;55696;52.138;5.444;2023-09-07T05:55:38;13.82;;;7.78;;
68718;SDS011;55696;52.138;5.444;2023-09-07T05:58:06;12.10;;;6.80;;
68718;SDS011;55696;52.138;5.444;2023-09-07T06:00:38;18.67;;;8.18;;
68718;SDS011;55696;52.138;5.444;2023-09-07T06:03:06;13.75;;;7.72;;
68718;SDS011;55696;52.138;5.444;2023-09-07T06:05:34;14.00;;;7.20;;
68718;SDS011;55696;52.138;5.444;2023-09-07T06:08:03;11.95;;;7.03;;
68718;SDS011;55696;52.138;5.444;2023-09-07T06:10:32;13.57;;;7.87;;
68718;SDS011;55696;52.138;5.444;2023-09-07T06:13:00;13.40;;;7.38;;
68718;SDS011;55696;52.138;5.444;2023-09-07T06:15:30;12.30;;;7.07;;
68718;SDS011;55696;52.138;5.444;2023-09-07T06:17:57;14.55;;;7.18;;
68718;SDS011;55696;52.138;5.444;2023-09-07T06:20:24;14.90;;;8.05;;
68718;SDS011;55696;52.138;5.444;2023-09-07T06:22:52;13.07;;;7.90;;
68718;SDS011;55696;52.138;5.444;2023-09-07T06:25:19;14.60;;;7.47;;
68718;SDS011;55696;52.138;5.444;2023-09-07T06:27:48;12.43;;;7.07;;
68718;SDS011;55696;52.138;5.444;2023-09-07T06:30:15;11.77;;;7.35;;
68718;SDS011;55696;52.138;5.444;2023-09-07T06:32:42;14.57;;;7.63;;
68718;SDS011;55696;52.138;5.444;2023-09-07T06:35:10;12.77;;;8.30;;
68718;SDS011;55696;52.138;5.444;2023-09-07T06:37:37;13.25;;;7.60;;
68718;SDS011;55696;52.138;5.444;2023-09-07T06:40:08;12.60;;;8.70;;
68718;SDS011;55696;52.138;5.444;2023-09-07T06:42:37;10.60;;;7.90;;
68718;SDS011;55696;52.138;5.444;2023-09-07T06:45:09;11.43;;;7.55;;
68718;SDS011;55696;52.138;5.444;2023-09-07T06:47:37;9.43;;;7.57;;
68718;SDS011;55696;52.138;5.444;2023-09-07T06:50:05;13.45;;;7.93;;
68718;SDS011;55696;52.138;5.444;2023-09-07T06:52:32;12.57;;;8.65;;
68718;SDS011;55696;52.138;5.444;2023-09-07T06:54:59;12.95;;;8.20;;
68718;SDS011;55696;52.138;5.444;2023-09-07T06:57:27;10.65;;;7.70;;
68718;SDS011;55696;52.138;5.444;2023-09-07T06:59:54;11.40;;;7.57;;
68718;SDS011;55696;52.138;5.444;2023-09-07T07:02:21;13.75;;;8.35;;
68718;SDS011;55696;52.138;5.444;2023-09-07T07:04:48;19.90;;;9.15;;
68718;SDS011;55696;52.138;5.444;2023-09-07T07:07:16;9.60;;;7.15;;
68718;SDS011;55696;52.138;5.444;2023-09-07T07:09:44;16.98;;;7.90;;
68718;SDS011;55696;52.138;5.444;2023-09-07T07:12:11;11.50;;;7.40;;
68718;SDS011;55696;52.138;5.444;2023-09-07T07:14:39;10.88;;;7.80;;
68718;SDS011;55696;52.138;5.444;2023-09-07T07:17:05;12.82;;;7.82;;
68718;SDS011;55696;52.138;5.444;2023-09-07T07:19:34;15.18;;;8.70;;
68718;SDS011;55696;52.138;5.444;2023-09-07T07:22:02;10.60;;;8.10;;
68718;SDS011;55696;52.138;5.444;2023-09-07T07:24:30;9.67;;;6.77;;
68718;SDS011;55696;52.138;5.444;2023-09-07T07:26:57;15.15;;;6.60;;
68718;SDS011;55696;52.138;5.444;2023-09-07T07:29:24;15.93;;;7.70;;
68718;SDS011;55696;52.138;5.444;2023-09-07T07:31:51;12.75;;;7.75;;
68718;SDS011;55696;52.138;5.444;2023-09-07T07:34:18;12.07;;;8.10;;
68718;SDS011;55696;52.138;5.444;2023-09-07T07:36:45;12.03;;;7.70;;
68718;SDS011;55696;52.138;5.444;2023-09-07T07:39:12;13.75;;;8.02;;
68718;SDS011;55696;52.138;5.444;2023-09-07T07:41:40;11.88;;;7.57;;
68718;SDS011;55696;52.138;5.444;2023-09-07T07:44:09;12.43;;;8.05;;
68718;SDS011;55696;52.138;5.444;2023-09-07T07:46:36;13.25;;;7.40;;
68718;SDS011;55696;52.138;5.444;2023-09-07T07:49:03;12.73;;;8.03;;
68718;SDS011;55696;52.138;5.444;2023-09-07T07:51:30;17.85;;;7.65;;
68718;SDS011;55696;52.138;5.444;2023-09-07T07:53:57;12.68;;;6.72;;
68718;SDS011;55696;52.138;5.444;2023-09-07T07:56:24;12.73;;;8.45;;
68718;SDS011;55696;52.138;5.444;2023-09-07T07:58:53;12.70;;;7.82;;
68718;SDS011;55696;52.138;5.444;2023-09-07T08:01:20;16.13;;;7.80;;
68718;SDS011;55696;52.138;5.444;2023-09-07T08:03:50;14.43;;;8.00;;
68718;SDS011;55696;52.138;5.444;2023-09-07T08:06:18;11.85;;;7.53;;
68718;SDS011;55696;52.138;5.444;2023-09-07T08:08:45;12.55;;;8.38;;
68718;SDS011;55696;52.138;5.444;2023-09-07T08:11:13;14.73;;;8.07;;
68718;SDS011;55696;52.138;5.444;2023-09-07T08:13:41;12.17;;;8.50;;
68718;SDS011;55696;52.138;5.444;2023-09-07T08:16:10;11.75;;;7.72;;
68718;SDS011;55696;52.138;5.444;2023-09-07T08:18:40;11.57;;;7.45;;
68718;SDS011;55696;52.138;5.444;2023-09-07T08:21:09;11.50;;;7.43;;
68718;SDS011;55696;52.138;5.444;2023-09-07T08:23:36;14.70;;;7.85;;
68718;SDS011;55696;52.138;5.444;2023-09-07T08:26:03;15.00;;;8.03;;
68718;SDS011;55696;52.138;5.444;2023-09-07T08:28:32;23.25;;;8.98;;
68718;SDS011;55696;52.138;5.444;2023-09-07T08:30:59;12.00;;;8.00;;
68718;SDS011;55696;52.138;5.444;2023-09-07T08:33:27;13.80;;;8.50;;
68718;SDS011;55696;52.138;5.444;2023-09-07T08:35:56;11.65;;;7.15;;
68718;SDS011;55696;52.138;5.444;2023-09-07T08:38:23;12.47;;;6.47;;
68718;SDS011;55696;52.138;5.444;2023-09-07T08:40:54;9.73;;;6.45;;
68718;SDS011;55696;52.138;5.444;2023-09-07T08:43:22;8.80;;;5.78;;
68718;SDS011;55696;52.138;5.444;2023-09-07T08:45:58;8.85;;;5.60;;
68718;SDS011;55696;52.138;5.444;2023-09-07T08:48:41;8.35;;;5.57;;
68718;SDS011;55696;52.138;5.444;2023-09-07T08:51:10;9.20;;;5.07;;
68718;SDS011;55696;52.138;5.444;2023-09-07T08:53:39;10.57;;;5.40;;
68718;SDS011;55696;52.138;5.444;2023-09-07T08:56:07;10.40;;;5.53;;
68718;SDS011;55696;52.138;5.444;2023-09-07T08:58:36;12.32;;;5.63;;
68718;SDS011;55696;52.138;5.444;2023-09-07T09:01:04;9.52;;;5.13;;
68718;SDS011;55696;52.138;5.444;2023-09-07T09:03:34;8.47;;;4.77;;
68718;SDS011;55696;52.138;5.444;2023-09-07T09:06:02;9.18;;;4.63;;
68718;SDS011;55696;52.138;5.444;2023-09-07T09:08:43;8.93;;;4.88;;
68718;SDS011;55696;52.138;5.444;2023-09-07T09:11:17;7.13;;;3.50;;
68718;SDS011;55696;52.138;5.444;2023-09-07T09:13:44;10.43;;;5.03;;
68718;SDS011;55696;52.138;5.444;2023-09-07T09:16:12;9.37;;;4.50;;
68718;SDS011;55696;52.138;5.444;2023-09-07T09:18:49;9.15;;;4.80;;
68718;SDS011;55696;52.138;5.444;2023-09-07T09:21:20;11.20;;;4.25;;
68718;SDS011;55696;52.138;5.444;2023-09-07T09:23:51;8.60;;;4.45;;
68718;SDS011;55696;52.138;5.444;2023-09-07T09:26:19;5.72;;;3.97;;
68718;SDS011;55696;52.138;5.444;2023-09-07T09:28:46;5.97;;;3.80;;
68718;SDS011;55696;52.138;5.444;2023-09-07T09:31:13;7.20;;;5.28;;
68718;SDS011;55696;52.138;5.444;2023-09-07T09:33:42;9.40;;;4.18;;
68718;SDS011;55696;52.138;5.444;2023-09-07T09:36:13;8.82;;;4.13;;
68718;SDS011;55696;52.138;5.444;2023-09-07T09:38:46;10.52;;;4.47;;
68718;SDS011;55696;52.138;5.444;2023-09-07T09:41:19;7.23;;;3.73;;
68718;SDS011;55696;52.138;5.444;2023-09-07T09:43:47;5.65;;;3.30;;
68718;SDS011;55696;52.138;5.444;2023-09-07T09:46:20;5.53;;;3.47;;
68718;SDS011;55696;52.138;5.444;2023-09-07T09:48:49;6.03;;;3.40;;
68718;SDS011;55696;52.138;5.444;2023-09-07T09:51:17;6.65;;;3.83;;
68718;SDS011;55696;52.138;5.444;2023-09-07T09:53:44;7.77;;;4.03;;
68718;SDS011;55696;52.138;5.444;2023-09-07T09:56:12;5.70;;;3.60;;
68718;SDS011;55696;52.138;5.444;2023-09-07T09:58:39;7.90;;;3.95;;
68718;SDS011;55696;52.138;5.444;2023-09-07T10:01:06;7.40;;;3.60;;
68718;SDS011;55696;52.138;5.444;2023-09-07T10:03:34;7.25;;;3.40;;
68718;SDS011;55696;52.138;5.444;2023-09-07T10:09:02;8.15;;;4.30;;
68718;SDS011;55696;52.138;5.444;2023-09-07T10:11:34;7.70;;;3.60;;
68718;SDS011;55696;52.138;5.444;2023-09-07T10:14:04;7.75;;;3.40;;
68718;SDS011;55696;52.138;5.444;2023-09-07T10:16:53;13.05;;;9.40;;
68718;SDS011;55696;52.138;5.444;2023-09-07T10:19:25;10.63;;;3.80;;
68718;SDS011;55696;52.138;5.444;2023-09-07T10:21:53;6.10;;;3.30;;
68718;SDS011;55696;52.138;5.444;2023-09-07T10:24:25;6.97;;;3.92;;
68718;SDS011;55696;52.138;5.444;2023-09-07T10:26:59;6.78;;;3.80;;
68718;SDS011;55696;52.138;5.444;2023-09-07T10:29:28;5.53;;;3.55;;
68718;SDS011;55696;52.138;5.444;2023-09-07T10:31:55;8.33;;;3.90;;
68718;SDS011;55696;52.138;5.444;2023-09-07T10:34:33;5.72;;;3.67;;
68718;SDS011;55696;52.138;5.444;2023-09-07T10:37:01;6.35;;;3.65;;
68718;SDS011;55696;52.138;5.444;2023-09-07T10:39:31;7.38;;;3.42;;
68718;SDS011;55696;52.138;5.444;2023-09-07T10:41:58;7.13;;;4.43;;
68718;SDS011;55696;52.138;5.444;2023-09-07T10:44:25;8.47;;;4.57;;
68718;SDS011;55696;52.138;5.444;2023-09-07T10:46:58;8.30;;;3.80;;
68718;SDS011;55696;52.138;5.444;2023-09-07T10:49:26;11.90;;;6.82;;
68718;SDS011;55696;52.138;5.444;2023-09-07T10:51:53;15.90;;;8.55;;
68718;SDS011;55696;52.138;5.444;2023-09-07T10:54:23;9.43;;;4.72;;
68718;SDS011;55696;52.138;5.444;2023-09-07T10:56:50;6.70;;;4.43;;
68718;SDS011;55696;52.138;5.444;2023-09-07T10:59:17;11.27;;;6.65;;
68718;SDS011;55696;52.138;5.444;2023-09-07T11:01:45;7.03;;;4.20;;
68718;SDS011;55696;52.138;5.444;2023-09-07T11:04:12;8.35;;;4.90;;
68718;SDS011;55696;52.138;5.444;2023-09-07T11:06:40;6.60;;;3.65;;
68718;SDS011;55696;52.138;5.444;2023-09-07T11:09:08;8.77;;;4.83;;
68718;SDS011;55696;52.138;5.444;2023-09-07T11:11:37;7.20;;;3.78;;
68718;SDS011;55696;52.138;5.444;2023-09-07T11:14:05;7.68;;;4.18;;
68718;SDS011;55696;52.138;5.444;2023-09-07T11:16:32;8.27;;;5.05;;
68718;SDS011;55696;52.138;5.444;2023-09-07T11:19:03;7.25;;;3.83;;
68718;SDS011;55696;52.138;5.444;2023-09-07T11:21:31;7.83;;;4.57;;
68718;SDS011;55696;52.138;5.444;2023-09-07T11:24:02;9.98;;;4.20;;
68718;SDS011;55696;52.138;5.444;2023-09-07T11:26:45;5.93;;;3.40;;
68718;SDS011;55696;52.138;5.444;2023-09-07T11:29:13;6.43;;;3.35;;
68718;SDS011;55696;52.138;5.444;2023-09-07T11:31:42;5.80;;;3.33;;
68718;SDS011;55696;52.138;5.444;2023-09-07T11:34:10;6.57;;;3.17;;
68718;SDS011;55696;52.138;5.444;2023-09-07T11:36:39;8.27;;;3.92;;
68718;SDS011;55696;52.138;5.444;2023-09-07T11:39:06;7.55;;;4.25;;
68718;SDS011;55696;52.138;5.444;2023-09-07T11:41:42;8.23;;;5.75;;
68718;SDS011;55696;52.138;5.444;2023-09-07T11:44:10;7.05;;;3.75;;
68718;SDS011;55696;52.138;5.444;2023-09-07T11:46:39;5.03;;;3.03;;
68718;SDS011;55696;52.138;5.444;2023-09-07T11:49:06;7.07;;;4.20;;
68718;SDS011;55696;52.138;5.444;2023-09-07T11:51:36;5.97;;;3.47;;
68718;SDS011;55696;52.138;5.444;2023-09-07T11:54:03;6.47;;;3.40;;
68718;SDS011;55696;52.138;5.444;2023-09-07T11:56:31;5.65;;;3.35;;
68718;SDS011;55696;52.138;5.444;2023-09-07T11:58:58;5.97;;;3.33;;
68718;SDS011;55696;52.138;5.444;2023-09-07T12:01:25;6.40;;;3.70;;
68718;SDS011;55696;52.138;5.444;2023-09-07T12:03:53;5.38;;;3.80;;
68718;SDS011;55696;52.138;5.444;2023-09-07T12:06:21;6.82;;;3.83;;
68718;SDS011;55696;52.138;5.444;2023-09-07T12:08:59;5.60;;;3.85;;
68718;SDS011;55696;52.138;5.444;2023-09-07T12:11:27;6.43;;;3.50;;
68718;SDS011;55696;52.138;5.444;2023-09-07T12:13:54;6.10;;;4.05;;
68718;SDS011;55696;52.138;5.444;2023-09-07T12:16:21;5.22;;;3.40;;
68718;SDS011;55696;52.138;5.444;2023-09-07T12:18:48;7.10;;;3.90;;
68718;SDS011;55696;52.138;5.444;2023-09-07T12:21:15;8.85;;;3.55;;
68718;SDS011;55696;52.138;5.444;2023-09-07T12:23:42;6.70;;;3.37;;
68718;SDS011;55696;52.138;5.444;2023-09-07T12:26:09;5.57;;;3.65;;
68718;SDS011;55696;52.138;5.444;2023-09-07T12:28:36;6.82;;;3.75;;
68718;SDS011;55696;52.138;5.444;2023-09-07T12:31:03;5.40;;;2.90;;
68718;SDS011;55696;52.138;5.444;2023-09-07T12:33:31;7.10;;;3.67;;
68718;SDS011;55696;52.138;5.444;2023-09-07T12:35:59;5.47;;;3.13;;
68718;SDS011;55696;52.138;5.444;2023-09-07T12:38:26;4.50;;;3.10;;
68718;SDS011;55696;52.138;5.444;2023-09-07T12:40:55;6.80;;;3.17;;
68718;SDS011;55696;52.138;5.444;2023-09-07T12:43:22;5.03;;;3.33;;
68718;SDS011;55696;52.138;5.444;2023-09-07T12:45:51;4.93;;;2.70;;
68718;SDS011;55696;52.138;5.444;2023-09-07T12:48:19;9.67;;;3.40;;
68718;SDS011;55696;52.138;5.444;2023-09-07T12:50:46;4.93;;;2.97;;
68718;SDS011;55696;52.138;5.444;2023-09-07T12:53:13;6.28;;;3.22;;
68718;SDS011;55696;52.138;5.444;2023-09-07T12:55:40;5.95;;;2.90;;
68718;SDS011;55696;52.138;5.444;2023-09-07T12:58:07;5.72;;;3.15;;
68718;SDS011;55696;52.138;5.444;2023-09-07T13:00:33;5.97;;;3.10;;
68718;SDS011;55696;52.138;5.444;2023-09-07T13:03:00;5.10;;;2.80;;
68718;SDS011;55696;52.138;5.444;2023-09-07T13:05:28;6.35;;;3.20;;
68718;SDS011;55696;52.138;5.444;2023-09-07T13:07:55;4.80;;;2.75;;
68718;SDS011;55696;52.138;5.444;2023-09-07T13:10:23;6.38;;;3.17;;
68718;SDS011;55696;52.138;5.444;2023-09-07T13:12:51;9.30;;;3.10;;
68718;SDS011;55696;52.138;5.444;2023-09-07T13:15:17;6.60;;;3.20;;
68718;SDS011;55696;52.138;5.444;2023-09-07T13:17:44;6.47;;;3.00;;
68718;SDS011;55696;52.138;5.444;2023-09-07T13:20:11;4.80;;;3.08;;
68718;SDS011;55696;52.138;5.444;2023-09-07T13:22:38;6.10;;;3.22;;
68718;SDS011;55696;52.138;5.444;2023-09-07T13:25:08;8.40;;;3.20;;
68718;SDS011;55696;52.138;5.444;2023-09-07T13:27:35;5.07;;;2.75;;
68718;SDS011;55696;52.138;5.444;2023-09-07T13:30:03;5.63;;;3.22;;
68718;SDS011;55696;52.138;5.444;2023-09-07T13:32:31;6.18;;;3.35;;
68718;SDS011;55696;52.138;5.444;2023-09-07T13:34:59;6.32;;;2.92;;
68718;SDS011;55696;52.138;5.444;2023-09-07T13:37:26;5.47;;;3.13;;
68718;SDS011;55696;52.138;5.444;2023-09-07T13:39:53;8.82;;;3.00;;
68718;SDS011;55696;52.138;5.444;2023-09-07T13:42:20;7.10;;;3.38;;
68718;SDS011;55696;52.138;5.444;2023-09-07T13:44:46;10.70;;;3.15;;
68718;SDS011;55696;52.138;5.444;2023-09-07T13:47:14;4.85;;;3.22;;
68718;SDS011;55696;52.138;5.444;2023-09-07T13:49:41;5.90;;;3.00;;
68718;SDS011;55696;52.138;5.444;2023-09-07T13:52:08;4.90;;;3.28;;
68718;SDS011;55696;52.138;5.444;2023-09-07T13:54:34;8.48;;;3.20;;
68718;SDS011;55696;52.138;5.444;2023-09-07T13:57:01;5.15;;;2.83;;
68718;SDS011;55696;52.138;5.444;2023-09-07T13:59:28;6.28;;;3.13;;
68718;SDS011;55696;52.138;5.444;2023-09-07T14:01:59;6.97;;;3.23;;
68718;SDS011;55696;52.138;5.444;2023-09-07T14:04:26;8.07;;;3.65;;
68718;SDS011;55696;52.138;5.444;2023-09-07T14:06:53;6.10;;;3.40;;
68718;SDS011;55696;52.138;5.444;2023-09-07T14:09:20;9.20;;;3.63;;
68718;SDS011;55696;52.138;5.444;2023-09-07T14:11:49;7.88;;;2.92;;
68718;SDS011;55696;52.138;5.444;2023-09-07T14:14:16;9.00;;;3.37;;
68718;SDS011;55696;52.138;5.444;2023-09-07T14:16:44;4.78;;;2.97;;
68718;SDS011;55696;52.138;5.444;2023-09-07T14:19:11;5.35;;;2.90;;
68718;SDS011;55696;52.138;5.444;2023-09-07T14:21:38;4.60;;;3.20;;
68718;SDS011;55696;52.138;5.444;2023-09-07T14:24:05;4.75;;;3.50;;
68718;SDS011;55696;52.138;5.444;2023-09-07T14:26:32;6.07;;;2.77;;
68718;SDS011;55696;52.138;5.444;2023-09-07T14:28:58;7.70;;;3.72;;
68718;SDS011;55696;52.138;5.444;2023-09-07T14:31:25;6.28;;;3.50;;
68718;SDS011;55696;52.138;5.444;2023-09-07T14:33:52;6.50;;;3.40;;
68718;SDS011;55696;52.138;5.444;2023-09-07T14:36:19;8.70;;;3.30;;
68718;SDS011;55696;52.138;5.444;2023-09-07T14:38:46;5.57;;;3.20;;
68718;SDS011;55696;52.138;5.444;2023-09-07T14:41:13;5.45;;;3.33;;
68718;SDS011;55696;52.138;5.444;2023-09-07T14:43:46;7.18;;;3.38;;
68718;SDS011;55696;52.138;5.444;2023-09-07T14:46:14;4.97;;;3.30;;
68718;SDS011;55696;52.138;5.444;2023-09-07T14:48:41;7.57;;;3.63;;